sensor_id;sensor_type;location;lat;lon;timestamp;P1;durP1;ratioP1;P2;durP2;ratioP2
23617;SDS011;18207;32.078;34.818;2022-10-16T00:00:02;2.70;;;2.25;;
23617;SDS011;18207;32.078;34.818;2022-10-16T00:02:34;2.55;;;2.35;;
23617;SDS011;18207;32.078;34.818;2022-10-16T00:05:05;2.70;;;2.38;;
23617;SDS011;18207;32.078;34.818;2022-10-16T00:07:35;2.60;;;2.40;;
23617;SDS011;18207;32.078;34.818;2022-10-16T00:10:06;3.15;;;2.30;;
23617;SDS011;18207;32.078;34.818;2022-10-16T00:12:39;4.30;;;2.42;;
23617;SDS011;18207;32.078;34.818;2022-10-16T00:15:09;3.28;;;2.35;;
23617;SDS011;18207;32.078;34.818;2022-10-16T00:17:40;2.67;;;2.47;;
23617;SDS011;18207;32.078;34.818;2022-10-16T00:20:10;3.35;;;2.30;;
23617;SDS011;18207;32.078;34.818;2022-10-16T00:22:40;2.85;;;2.40;;
23617;SDS011;18207;32.078;34.818;2022-10-16T00:25:10;2.42;;;2.22;;
23617;SDS011;18207;32.078;34.818;2022-10-16T00:27:43;3.05;;;2.50;;
23617;SDS011;18207;32.078;34.818;2022-10-16T00:30:14;2.92;;;2.60;;
23617;SDS011;18207;32.078;34.818;2022-10-16T00:32:44;3.47;;;2.70;;
23617;SDS011;18207;32.078;34.818;2022-10-16T00:35:15;2.67;;;2.47;;
23617;SDS011;18207;32.078;34.818;2022-10-16T00:37:45;2.35;;;2.15;;
23617;SDS011;18207;32.078;34.818;2022-10-16T00:40:16;2.65;;;2.45;;
23617;SDS011;18207;32.078;34.818;2022-10-16T00:42:49;2.88;;;2.50;;
23617;SDS011;18207;32.078;34.818;2022-10-16T00:45:19;2.30;;;2.10;;
23617;SDS011;18207;32.078;34.818;2022-10-16T00:47:49;3.35;;;2.67;;
23617;SDS011;18207;32.078;34.818;2022-10-16T00:50:26;2.50;;;2.30;;
23617;SDS011;18207;32.078;34.818;2022-10-16T00:53:01;2.78;;;2.22;;
23617;SDS011;18207;32.078;34.818;2022-10-16T00:55:32;2.97;;;2.55;;
23617;SDS011;18207;32.078;34.818;2022-10-16T00:58:09;2.53;;;2.33;;
23617;SDS011;18207;32.078;34.818;2022-10-16T01:00:40;2.97;;;2.45;;
23617;SDS011;18207;32.078;34.818;2022-10-16T01:03:22;3.05;;;2.50;;
23617;SDS011;18207;32.078;34.818;2022-10-16T01:05:59;2.50;;;2.30;;
23617;SDS011;18207;32.078;34.818;2022-10-16T01:08:48;3.13;;;2.38;;
23617;SDS011;18207;32.078;34.818;2022-10-16T01:11:49;2.70;;;2.50;;
23617;SDS011;18207;32.078;34.818;2022-10-16T01:14:37;2.88;;;2.67;;
23617;SDS011;18207;32.078;34.818;2022-10-16T01:17:15;3.08;;;2.78;;
23617;SDS011;18207;32.078;34.818;2022-10-16T01:20:00;3.13;;;2.63;;
23617;SDS011;18207;32.078;34.818;2022-10-16T01:22:41;2.85;;;2.65;;
23617;SDS011;18207;32.078;34.818;2022-10-16T01:25:29;3.05;;;2.70;;
23617;SDS011;18207;32.078;34.818;2022-10-16T01:31:10;2.90;;;2.55;;
23617;SDS011;18207;32.078;34.818;2022-10-16T01:33:46;2.65;;;2.42;;
23617;SDS011;18207;32.078;34.818;2022-10-16T01:36:25;2.58;;;2.38;;
23617;SDS011;18207;32.078;34.818;2022-10-16T01:39:04;2.58;;;2.30;;
23617;SDS011;18207;32.078;34.818;2022-10-16T01:41:41;3.35;;;2.47;;
23617;SDS011;18207;32.078;34.818;2022-10-16T01:44:19;3.08;;;2.70;;
23617;SDS011;18207;32.078;34.818;2022-10-16T01:46:57;3.13;;;2.83;;
23617;SDS011;18207;32.078;34.818;2022-10-16T01:49:31;2.75;;;2.55;;
23617;SDS011;18207;32.078;34.818;2022-10-16T01:52:08;2.70;;;2.50;;
23617;SDS011;18207;32.078;34.818;2022-10-16T01:54:45;2.97;;;2.47;;
23617;SDS011;18207;32.078;34.818;2022-10-16T01:57:21;3.35;;;2.65;;
23617;SDS011;18207;32.078;34.818;2022-10-16T01:59:58;2.75;;;2.53;;
23617;SDS011;18207;32.078;34.818;2022-10-16T02:02:39;3.75;;;2.67;;
23617;SDS011;18207;32.078;34.818;2022-10-16T02:05:13;2.95;;;2.67;;
23617;SDS011;18207;32.078;34.818;2022-10-16T02:07:51;3.42;;;2.63;;
23617;SDS011;18207;32.078;34.818;2022-10-16T02:10:24;3.10;;;2.80;;
23617;SDS011;18207;32.078;34.818;2022-10-16T02:12:59;3.10;;;2.70;;
23617;SDS011;18207;32.078;34.818;2022-10-16T02:15:37;3.28;;;2.65;;
23617;SDS011;18207;32.078;34.818;2022-10-16T02:18:07;3.35;;;2.78;;
23617;SDS011;18207;32.078;34.818;2022-10-16T02:20:41;3.08;;;2.70;;
23617;SDS011;18207;32.078;34.818;2022-10-16T02:23:20;3.22;;;2.60;;
23617;SDS011;18207;32.078;34.818;2022-10-16T02:26:03;3.15;;;2.85;;
23617;SDS011;18207;32.078;34.818;2022-10-16T02:28:42;3.63;;;2.70;;
23617;SDS011;18207;32.078;34.818;2022-10-16T02:31:20;3.50;;;2.78;;
23617;SDS011;18207;32.078;34.818;2022-10-16T02:33:57;3.25;;;3.00;;
23617;SDS011;18207;32.078;34.818;2022-10-16T02:36:32;3.47;;;2.80;;
23617;SDS011;18207;32.078;34.818;2022-10-16T02:39:05;3.65;;;3.00;;
23617;SDS011;18207;32.078;34.818;2022-10-16T02:41:37;3.78;;;2.88;;
23617;SDS011;18207;32.078;34.818;2022-10-16T02:44:07;3.45;;;2.83;;
23617;SDS011;18207;32.078;34.818;2022-10-16T02:46:40;4.43;;;2.90;;
23617;SDS011;18207;32.078;34.818;2022-10-16T02:49:10;4.40;;;3.00;;
23617;SDS011;18207;32.078;34.818;2022-10-16T02:51:40;3.15;;;2.85;;
23617;SDS011;18207;32.078;34.818;2022-10-16T02:54:11;2.85;;;2.63;;
23617;SDS011;18207;32.078;34.818;2022-10-16T02:56:42;3.53;;;2.78;;
23617;SDS011;18207;32.078;34.818;2022-10-16T02:59:13;2.95;;;2.72;;
23617;SDS011;18207;32.078;34.818;2022-10-16T03:01:44;3.10;;;2.80;;
23617;SDS011;18207;32.078;34.818;2022-10-16T03:04:15;2.80;;;2.53;;
23617;SDS011;18207;32.078;34.818;2022-10-16T03:06:46;2.92;;;2.67;;
23617;SDS011;18207;32.078;34.818;2022-10-16T03:09:17;3.20;;;2.80;;
23617;SDS011;18207;32.078;34.818;2022-10-16T03:11:47;3.40;;;3.05;;
23617;SDS011;18207;32.078;34.818;2022-10-16T03:14:19;3.28;;;2.97;;
23617;SDS011;18207;32.078;34.818;2022-10-16T03:16:51;3.20;;;2.90;;
23617;SDS011;18207;32.078;34.818;2022-10-16T03:19:22;3.13;;;2.83;;
23617;SDS011;18207;32.078;34.818;2022-10-16T03:21:53;2.88;;;2.67;;
23617;SDS011;18207;32.078;34.818;2022-10-16T03:24:23;2.83;;;2.53;;
23617;SDS011;18207;32.078;34.818;2022-10-16T03:26:53;3.10;;;2.80;;
23617;SDS011;18207;32.078;34.818;2022-10-16T03:29:23;3.35;;;2.90;;
23617;SDS011;18207;32.078;34.818;2022-10-16T03:34:42;2.78;;;2.47;;
23617;SDS011;18207;32.078;34.818;2022-10-16T03:37:13;3.00;;;2.70;;
23617;SDS011;18207;32.078;34.818;2022-10-16T03:39:43;2.75;;;2.55;;
23617;SDS011;18207;32.078;34.818;2022-10-16T03:42:13;3.17;;;2.83;;
23617;SDS011;18207;32.078;34.818;2022-10-16T03:44:44;2.72;;;2.45;;
23617;SDS011;18207;32.078;34.818;2022-10-16T03:47:16;3.03;;;2.72;;
23617;SDS011;18207;32.078;34.818;2022-10-16T03:49:49;2.92;;;2.60;;
23617;SDS011;18207;32.078;34.818;2022-10-16T03:52:19;2.92;;;2.55;;
23617;SDS011;18207;32.078;34.818;2022-10-16T03:54:49;2.75;;;2.55;;
23617;SDS011;18207;32.078;34.818;2022-10-16T03:57:20;2.88;;;2.67;;
23617;SDS011;18207;32.078;34.818;2022-10-16T03:59:50;2.88;;;2.55;;
23617;SDS011;18207;32.078;34.818;2022-10-16T04:02:22;3.20;;;2.90;;
23617;SDS011;18207;32.078;34.818;2022-10-16T04:04:52;3.05;;;2.75;;
23617;SDS011;18207;32.078;34.818;2022-10-16T04:07:22;2.97;;;2.70;;
23617;SDS011;18207;32.078;34.818;2022-10-16T04:09:54;2.97;;;2.55;;
23617;SDS011;18207;32.078;34.818;2022-10-16T04:12:25;3.03;;;2.53;;
23617;SDS011;18207;32.078;34.818;2022-10-16T04:14:56;2.67;;;2.40;;
23617;SDS011;18207;32.078;34.818;2022-10-16T04:17:29;2.90;;;2.70;;
23617;SDS011;18207;32.078;34.818;2022-10-16T04:20:00;4.43;;;2.75;;
23617;SDS011;18207;32.078;34.818;2022-10-16T04:22:30;3.58;;;2.42;;
23617;SDS011;18207;32.078;34.818;2022-10-16T04:25:01;3.65;;;2.55;;
23617;SDS011;18207;32.078;34.818;2022-10-16T04:27:31;3.08;;;2.53;;
23617;SDS011;18207;32.078;34.818;2022-10-16T04:30:01;3.33;;;2.40;;
23617;SDS011;18207;32.078;34.818;2022-10-16T04:32:35;3.28;;;2.40;;
23617;SDS011;18207;32.078;34.818;2022-10-16T04:35:05;3.13;;;2.60;;
23617;SDS011;18207;32.078;34.818;2022-10-16T04:37:37;2.58;;;2.38;;
23617;SDS011;18207;32.078;34.818;2022-10-16T04:40:07;2.60;;;2.40;;
23617;SDS011;18207;32.078;34.818;2022-10-16T04:42:37;2.17;;;1.98;;
23617;SDS011;18207;32.078;34.818;2022-10-16T04:45:08;2.70;;;2.50;;
23617;SDS011;18207;32.078;34.818;2022-10-16T04:47:44;3.33;;;2.47;;
23617;SDS011;18207;32.078;34.818;2022-10-16T04:50:14;2.95;;;2.60;;
23617;SDS011;18207;32.078;34.818;2022-10-16T04:52:44;2.67;;;2.47;;
23617;SDS011;18207;32.078;34.818;2022-10-16T04:55:15;3.25;;;2.45;;
23617;SDS011;18207;32.078;34.818;2022-10-16T04:57:45;2.95;;;2.65;;
23617;SDS011;18207;32.078;34.818;2022-10-16T05:00:17;3.38;;;2.60;;
23617;SDS011;18207;32.078;34.818;2022-10-16T05:02:52;3.53;;;2.72;;
23617;SDS011;18207;32.078;34.818;2022-10-16T05:05:24;3.00;;;2.75;;
23617;SDS011;18207;32.078;34.818;2022-10-16T05:07:54;3.58;;;2.50;;
23617;SDS011;18207;32.078;34.818;2022-10-16T05:10:24;2.75;;;2.53;;
23617;SDS011;18207;32.078;34.818;2022-10-16T05:12:54;3.45;;;2.42;;
23617;SDS011;18207;32.078;34.818;2022-10-16T05:15:24;3.85;;;2.72;;
23617;SDS011;18207;32.078;34.818;2022-10-16T05:17:58;3.10;;;2.45;;
23617;SDS011;18207;32.078;34.818;2022-10-16T05:20:28;2.80;;;2.47;;
23617;SDS011;18207;32.078;34.818;2022-10-16T05:22:58;2.53;;;2.30;;
23617;SDS011;18207;32.078;34.818;2022-10-16T05:25:29;3.35;;;2.20;;
23617;SDS011;18207;32.078;34.818;2022-10-16T05:27:59;2.50;;;2.30;;
23617;SDS011;18207;32.078;34.818;2022-10-16T05:30:30;2.30;;;2.10;;
23617;SDS011;18207;32.078;34.818;2022-10-16T05:33:02;2.47;;;2.15;;
23617;SDS011;18207;32.078;34.818;2022-10-16T05:35:32;2.40;;;2.20;;
23617;SDS011;18207;32.078;34.818;2022-10-16T05:38:03;2.65;;;2.45;;
23617;SDS011;18207;32.078;34.818;2022-10-16T05:40:34;2.40;;;2.20;;
23617;SDS011;18207;32.078;34.818;2022-10-16T05:43:04;2.35;;;2.15;;
23617;SDS011;18207;32.078;34.818;2022-10-16T05:45:34;3.17;;;2.17;;
23617;SDS011;18207;32.078;34.818;2022-10-16T05:48:07;2.40;;;2.20;;
23617;SDS011;18207;32.078;34.818;2022-10-16T05:50:37;2.80;;;2.00;;
23617;SDS011;18207;32.078;34.818;2022-10-16T05:53:07;2.72;;;2.35;;
23617;SDS011;18207;32.078;34.818;2022-10-16T05:55:37;2.63;;;2.42;;
23617;SDS011;18207;32.078;34.818;2022-10-16T05:58:07;2.38;;;2.17;;
23617;SDS011;18207;32.078;34.818;2022-10-16T06:00:37;2.30;;;2.10;;
23617;SDS011;18207;32.078;34.818;2022-10-16T06:03:10;3.53;;;2.45;;
23617;SDS011;18207;32.078;34.818;2022-10-16T06:05:40;2.20;;;2.00;;
23617;SDS011;18207;32.078;34.818;2022-10-16T06:08:11;2.30;;;2.10;;
23617;SDS011;18207;32.078;34.818;2022-10-16T06:10:41;2.70;;;2.33;;
23617;SDS011;18207;32.078;34.818;2022-10-16T06:13:12;2.60;;;2.30;;
23617;SDS011;18207;32.078;34.818;2022-10-16T06:15:44;2.22;;;2.10;;
23617;SDS011;18207;32.078;34.818;2022-10-16T06:18:17;2.10;;;2.00;;
23617;SDS011;18207;32.078;34.818;2022-10-16T06:20:47;2.08;;;1.92;;
23617;SDS011;18207;32.078;34.818;2022-10-16T06:23:18;2.28;;;2.17;;
23617;SDS011;18207;32.078;34.818;2022-10-16T06:25:51;1.90;;;1.80;;
23617;SDS011;18207;32.078;34.818;2022-10-16T06:28:22;2.85;;;1.80;;
23617;SDS011;18207;32.078;34.818;2022-10-16T06:30:58;2.45;;;1.98;;
23617;SDS011;18207;32.078;34.818;2022-10-16T06:33:36;1.92;;;1.80;;
23617;SDS011;18207;32.078;34.818;2022-10-16T06:36:07;2.00;;;1.80;;
23617;SDS011;18207;32.078;34.818;2022-10-16T06:38:41;1.88;;;1.77;;
23617;SDS011;18207;32.078;34.818;2022-10-16T06:41:13;1.98;;;1.83;;
23617;SDS011;18207;32.078;34.818;2022-10-16T06:43:45;2.08;;;1.90;;
23617;SDS011;18207;32.078;34.818;2022-10-16T06:46:16;1.60;;;1.50;;
23617;SDS011;18207;32.078;34.818;2022-10-16T06:48:51;1.90;;;1.70;;
23617;SDS011;18207;32.078;34.818;2022-10-16T06:51:24;1.70;;;1.60;;
23617;SDS011;18207;32.078;34.818;2022-10-16T06:53:55;1.98;;;1.77;;
23617;SDS011;18207;32.078;34.818;2022-10-16T06:56:30;1.60;;;1.50;;
23617;SDS011;18207;32.078;34.818;2022-10-16T06:59:01;1.73;;;1.63;;
23617;SDS011;18207;32.078;34.818;2022-10-16T07:01:32;1.88;;;1.77;;
23617;SDS011;18207;32.078;34.818;2022-10-16T07:04:03;1.70;;;1.60;;
23617;SDS011;18207;32.078;34.818;2022-10-16T07:06:34;1.80;;;1.70;;
23617;SDS011;18207;32.078;34.818;2022-10-16T07:09:04;2.25;;;1.50;;
23617;SDS011;18207;32.078;34.818;2022-10-16T07:11:39;1.67;;;1.58;;
23617;SDS011;18207;32.078;34.818;2022-10-16T07:14:12;1.48;;;1.38;;
23617;SDS011;18207;32.078;34.818;2022-10-16T07:16:46;1.58;;;1.20;;
23617;SDS011;18207;32.078;34.818;2022-10-16T07:19:19;1.50;;;1.40;;
23617;SDS011;18207;32.078;34.818;2022-10-16T07:21:49;1.50;;;1.40;;
23617;SDS011;18207;32.078;34.818;2022-10-16T07:24:20;1.45;;;1.38;;
23617;SDS011;18207;32.078;34.818;2022-10-16T07:26:50;1.70;;;1.60;;
23617;SDS011;18207;32.078;34.818;2022-10-16T07:29:21;1.35;;;1.25;;
23617;SDS011;18207;32.078;34.818;2022-10-16T07:31:51;1.25;;;1.25;;
23617;SDS011;18207;32.078;34.818;2022-10-16T07:34:23;2.60;;;1.33;;
23617;SDS011;18207;32.078;34.818;2022-10-16T07:36:54;1.35;;;1.25;;
23617;SDS011;18207;32.078;34.818;2022-10-16T07:39:25;1.60;;;1.50;;
23617;SDS011;18207;32.078;34.818;2022-10-16T07:41:56;1.60;;;1.50;;
23617;SDS011;18207;32.078;34.818;2022-10-16T07:44:26;1.88;;;1.63;;
23617;SDS011;18207;32.078;34.818;2022-10-16T07:46:56;1.52;;;1.42;;
23617;SDS011;18207;32.078;34.818;2022-10-16T07:49:28;2.03;;;1.80;;
23617;SDS011;18207;32.078;34.818;2022-10-16T07:51:59;1.65;;;1.55;;
23617;SDS011;18207;32.078;34.818;2022-10-16T07:54:29;1.30;;;1.20;;
23617;SDS011;18207;32.078;34.818;2022-10-16T07:57:08;1.30;;;1.20;;
23617;SDS011;18207;32.078;34.818;2022-10-16T07:59:45;2.65;;;1.33;;
23617;SDS011;18207;32.078;34.818;2022-10-16T08:02:16;1.55;;;1.23;;
23617;SDS011;18207;32.078;34.818;2022-10-16T08:04:49;2.35;;;1.38;;
23617;SDS011;18207;32.078;34.818;2022-10-16T08:07:20;1.38;;;1.27;;
23617;SDS011;18207;32.078;34.818;2022-10-16T08:09:51;1.42;;;1.23;;
23617;SDS011;18207;32.078;34.818;2022-10-16T08:12:23;1.50;;;1.30;;
23617;SDS011;18207;32.078;34.818;2022-10-16T08:14:54;1.85;;;1.75;;
23617;SDS011;18207;32.078;34.818;2022-10-16T08:17:24;1.92;;;1.77;;
23617;SDS011;18207;32.078;34.818;2022-10-16T08:19:56;3.40;;;1.90;;
23617;SDS011;18207;32.078;34.818;2022-10-16T08:22:27;2.00;;;1.90;;
23617;SDS011;18207;32.078;34.818;2022-10-16T08:24:58;1.92;;;1.80;;
23617;SDS011;18207;32.078;34.818;2022-10-16T08:27:30;1.95;;;1.85;;
23617;SDS011;18207;32.078;34.818;2022-10-16T08:30:04;1.90;;;1.80;;
23617;SDS011;18207;32.078;34.818;2022-10-16T08:32:39;2.13;;;1.77;;
23617;SDS011;18207;32.078;34.818;2022-10-16T08:35:11;2.20;;;2.00;;
23617;SDS011;18207;32.078;34.818;2022-10-16T08:37:42;1.90;;;1.80;;
23617;SDS011;18207;32.078;34.818;2022-10-16T08:40:15;1.90;;;1.80;;
23617;SDS011;18207;32.078;34.818;2022-10-16T08:43:08;1.90;;;1.80;;
23617;SDS011;18207;32.078;34.818;2022-10-16T08:46:03;2.13;;;1.92;;
23617;SDS011;18207;32.078;34.818;2022-10-16T08:49:03;1.95;;;1.85;;
23617;SDS011;18207;32.078;34.818;2022-10-16T08:51:43;2.00;;;1.85;;
23617;SDS011;18207;32.078;34.818;2022-10-16T08:54:21;1.65;;;1.55;;
23617;SDS011;18207;32.078;34.818;2022-10-16T08:57:07;2.20;;;2.00;;
23617;SDS011;18207;32.078;34.818;2022-10-16T08:59:49;1.88;;;1.77;;
23617;SDS011;18207;32.078;34.818;2022-10-16T09:02:25;2.20;;;2.00;;
23617;SDS011;18207;32.078;34.818;2022-10-16T09:08:37;1.77;;;1.67;;
23617;SDS011;18207;32.078;34.818;2022-10-16T09:11:34;1.60;;;1.50;;
23617;SDS011;18207;32.078;34.818;2022-10-16T09:14:25;1.75;;;1.60;;
23617;SDS011;18207;32.078;34.818;2022-10-16T09:17:30;1.85;;;1.75;;
23617;SDS011;18207;32.078;34.818;2022-10-16T09:20:24;1.60;;;1.50;;
23617;SDS011;18207;32.078;34.818;2022-10-16T09:23:10;1.73;;;1.40;;
23617;SDS011;18207;32.078;34.818;2022-10-16T09:25:47;1.65;;;1.27;;
23617;SDS011;18207;32.078;34.818;2022-10-16T09:28:21;1.20;;;1.20;;
23617;SDS011;18207;32.078;34.818;2022-10-16T09:30:51;1.27;;;1.25;;
23617;SDS011;18207;32.078;34.818;2022-10-16T09:33:22;1.30;;;1.20;;
23617;SDS011;18207;32.078;34.818;2022-10-16T09:35:58;1.45;;;1.35;;
23617;SDS011;18207;32.078;34.818;2022-10-16T09:38:32;1.52;;;1.23;;
23617;SDS011;18207;32.078;34.818;2022-10-16T09:41:13;1.35;;;1.25;;
23617;SDS011;18207;32.078;34.818;2022-10-16T09:43:49;1.63;;;1.30;;
23617;SDS011;18207;32.078;34.818;2022-10-16T09:46:27;1.50;;;1.40;;
23617;SDS011;18207;32.078;34.818;2022-10-16T09:49:01;2.25;;;1.40;;
23617;SDS011;18207;32.078;34.818;2022-10-16T09:51:36;1.77;;;1.55;;
23617;SDS011;18207;32.078;34.818;2022-10-16T09:54:13;1.67;;;1.58;;
23617;SDS011;18207;32.078;34.818;2022-10-16T09:56:47;1.77;;;1.67;;
23617;SDS011;18207;32.078;34.818;2022-10-16T09:59:20;1.85;;;1.75;;
23617;SDS011;18207;32.078;34.818;2022-10-16T10:01:55;1.35;;;1.33;;
23617;SDS011;18207;32.078;34.818;2022-10-16T10:04:37;1.83;;;1.73;;
23617;SDS011;18207;32.078;34.818;2022-10-16T10:07:21;1.58;;;1.45;;
23617;SDS011;18207;32.078;34.818;2022-10-16T10:09:56;1.20;;;1.20;;
23617;SDS011;18207;32.078;34.818;2022-10-16T10:12:30;2.40;;;1.70;;
23617;SDS011;18207;32.078;34.818;2022-10-16T10:15:04;1.65;;;1.55;;
23617;SDS011;18207;32.078;34.818;2022-10-16T10:17:45;1.60;;;1.50;;
23617;SDS011;18207;32.078;34.818;2022-10-16T10:20:22;1.48;;;1.38;;
23617;SDS011;18207;32.078;34.818;2022-10-16T10:22:57;1.67;;;1.42;;
23617;SDS011;18207;32.078;34.818;2022-10-16T10:25:36;1.52;;;1.42;;
23617;SDS011;18207;32.078;34.818;2022-10-16T10:31:36;1.67;;;1.58;;
23617;SDS011;18207;32.078;34.818;2022-10-16T10:34:25;2.10;;;2.00;;
23617;SDS011;18207;32.078;34.818;2022-10-16T10:37:15;1.83;;;1.73;;
23617;SDS011;18207;32.078;34.818;2022-10-16T10:40:15;1.80;;;1.70;;
23617;SDS011;18207;32.078;34.818;2022-10-16T10:43:23;1.80;;;1.70;;
23617;SDS011;18207;32.078;34.818;2022-10-16T10:46:16;1.75;;;1.65;;
23617;SDS011;18207;32.078;34.818;2022-10-16T10:49:04;1.75;;;1.65;;
23617;SDS011;18207;32.078;34.818;2022-10-16T10:51:53;2.00;;;1.90;;
23617;SDS011;18207;32.078;34.818;2022-10-16T10:54:44;2.00;;;1.90;;
23617;SDS011;18207;32.078;34.818;2022-10-16T10:57:28;1.83;;;1.73;;
23617;SDS011;18207;32.078;34.818;2022-10-16T11:00:14;1.95;;;1.85;;
23617;SDS011;18207;32.078;34.818;2022-10-16T11:03:00;2.03;;;1.90;;
23617;SDS011;18207;32.078;34.818;2022-10-16T11:05:54;2.00;;;1.90;;
23617;SDS011;18207;32.078;34.818;2022-10-16T11:08:35;1.88;;;1.77;;
23617;SDS011;18207;32.078;34.818;2022-10-16T11:11:14;1.98;;;1.88;;
23617;SDS011;18207;32.078;34.818;2022-10-16T11:13:54;1.85;;;1.67;;
23617;SDS011;18207;32.078;34.818;2022-10-16T11:16:32;1.73;;;1.63;;
23617;SDS011;18207;32.078;34.818;2022-10-16T11:19:13;1.80;;;1.70;;
23617;SDS011;18207;32.078;34.818;2022-10-16T11:22:00;1.90;;;1.80;;
23617;SDS011;18207;32.078;34.818;2022-10-16T11:24:41;1.83;;;1.73;;
23617;SDS011;18207;32.078;34.818;2022-10-16T11:27:19;1.80;;;1.70;;
23617;SDS011;18207;32.078;34.818;2022-10-16T11:30:01;1.60;;;1.50;;
23617;SDS011;18207;32.078;34.818;2022-10-16T11:32:44;1.90;;;1.70;;
23617;SDS011;18207;32.078;34.818;2022-10-16T11:35:55;1.70;;;1.60;;
23617;SDS011;18207;32.078;34.818;2022-10-16T11:38:39;1.65;;;1.55;;
23617;SDS011;18207;32.078;34.818;2022-10-16T11:41:23;1.77;;;1.67;;
23617;SDS011;18207;32.078;34.818;2022-10-16T11:44:09;1.80;;;1.70;;
23617;SDS011;18207;32.078;34.818;2022-10-16T11:47:13;1.70;;;1.60;;
23617;SDS011;18207;32.078;34.818;2022-10-16T11:50:19;1.42;;;1.33;;
23617;SDS011;18207;32.078;34.818;2022-10-16T11:53:12;1.50;;;1.40;;
23617;SDS011;18207;32.078;34.818;2022-10-16T11:55:55;1.50;;;1.40;;
23617;SDS011;18207;32.078;34.818;2022-10-16T11:58:27;1.45;;;1.35;;
23617;SDS011;18207;32.078;34.818;2022-10-16T12:01:13;1.77;;;1.67;;
23617;SDS011;18207;32.078;34.818;2022-10-16T12:03:58;1.70;;;1.60;;
23617;SDS011;18207;32.078;34.818;2022-10-16T12:06:45;2.08;;;1.40;;
23617;SDS011;18207;32.078;34.818;2022-10-16T12:09:27;2.03;;;1.70;;
23617;SDS011;18207;32.078;34.818;2022-10-16T12:12:03;1.98;;;1.77;;
23617;SDS011;18207;32.078;34.818;2022-10-16T12:15:00;4.35;;;1.58;;
23617;SDS011;18207;32.078;34.818;2022-10-16T12:18:20;2.75;;;1.73;;
23617;SDS011;18207;32.078;34.818;2022-10-16T12:20:55;3.13;;;1.63;;
23617;SDS011;18207;32.078;34.818;2022-10-16T12:23:32;2.55;;;1.50;;
23617;SDS011;18207;32.078;34.818;2022-10-16T12:26:09;1.50;;;1.15;;
23617;SDS011;18207;32.078;34.818;2022-10-16T12:28:41;2.28;;;1.60;;
23617;SDS011;18207;32.078;34.818;2022-10-16T12:31:15;2.08;;;1.77;;
23617;SDS011;18207;32.078;34.818;2022-10-16T12:33:56;2.25;;;1.60;;
23617;SDS011;18207;32.078;34.818;2022-10-16T12:36:33;2.00;;;1.33;;
23617;SDS011;18207;32.078;34.818;2022-10-16T12:42:05;2.65;;;1.27;;
23617;SDS011;18207;32.078;34.818;2022-10-16T12:44:50;1.60;;;1.30;;
23617;SDS011;18207;32.078;34.818;2022-10-16T12:47:22;1.88;;;1.40;;
23617;SDS011;18207;32.078;34.818;2022-10-16T12:53:01;1.50;;;1.40;;
23617;SDS011;18207;32.078;34.818;2022-10-16T12:55:50;1.75;;;1.38;;
23617;SDS011;18207;32.078;34.818;2022-10-16T13:01:37;1.40;;;1.30;;
23617;SDS011;18207;32.078;34.818;2022-10-16T13:04:40;3.67;;;1.30;;
23617;SDS011;18207;32.078;34.818;2022-10-16T13:07:46;1.27;;;1.10;;
23617;SDS011;18207;32.078;34.818;2022-10-16T13:10:31;1.60;;;1.20;;
23617;SDS011;18207;32.078;34.818;2022-10-16T13:13:13;1.55;;;1.00;;
23617;SDS011;18207;32.078;34.818;2022-10-16T13:16:18;1.30;;;1.20;;
23617;SDS011;18207;32.078;34.818;2022-10-16T13:19:01;1.48;;;1.27;;
23617;SDS011;18207;32.078;34.818;2022-10-16T13:21:46;1.05;;;1.00;;
23617;SDS011;18207;32.078;34.818;2022-10-16T13:27:38;1.30;;;1.08;;
23617;SDS011;18207;32.078;34.818;2022-10-16T13:30:20;1.77;;;1.38;;
23617;SDS011;18207;32.078;34.818;2022-10-16T13:33:01;3.28;;;1.17;;
23617;SDS011;18207;32.078;34.818;2022-10-16T13:35:37;2.45;;;1.20;;
23617;SDS011;18207;32.078;34.818;2022-10-16T13:38:19;1.83;;;1.20;;
23617;SDS011;18207;32.078;34.818;2022-10-16T13:40:53;2.42;;;1.35;;
23617;SDS011;18207;32.078;34.818;2022-10-16T13:43:27;1.83;;;1.38;;
23617;SDS011;18207;32.078;34.818;2022-10-16T13:46:05;1.55;;;1.30;;
23617;SDS011;18207;32.078;34.818;2022-10-16T13:48:42;1.48;;;1.20;;
23617;SDS011;18207;32.078;34.818;2022-10-16T13:51:13;2.83;;;1.40;;
23617;SDS011;18207;32.078;34.818;2022-10-16T13:53:46;1.45;;;1.10;;
23617;SDS011;18207;32.078;34.818;2022-10-16T13:56:18;1.95;;;1.38;;
23617;SDS011;18207;32.078;34.818;2022-10-16T13:58:58;1.40;;;1.23;;
23617;SDS011;18207;32.078;34.818;2022-10-16T14:01:30;1.30;;;1.20;;
23617;SDS011;18207;32.078;34.818;2022-10-16T14:04:07;1.23;;;1.13;;
23617;SDS011;18207;32.078;34.818;2022-10-16T14:06:49;2.20;;;1.38;;
23617;SDS011;18207;32.078;34.818;2022-10-16T14:09:29;1.92;;;1.10;;
23617;SDS011;18207;32.078;34.818;2022-10-16T14:12:06;2.25;;;1.10;;
23617;SDS011;18207;32.078;34.818;2022-10-16T14:14:42;1.48;;;1.17;;
23617;SDS011;18207;32.078;34.818;2022-10-16T14:17:18;1.40;;;1.05;;
23617;SDS011;18207;32.078;34.818;2022-10-16T14:20:14;2.50;;;1.25;;
23617;SDS011;18207;32.078;34.818;2022-10-16T14:22:45;1.65;;;1.20;;
23617;SDS011;18207;32.078;34.818;2022-10-16T14:25:27;2.47;;;1.13;;
23617;SDS011;18207;32.078;34.818;2022-10-16T14:28:02;1.20;;;1.10;;
23617;SDS011;18207;32.078;34.818;2022-10-16T14:30:50;1.92;;;1.10;;
23617;SDS011;18207;32.078;34.818;2022-10-16T14:33:25;1.52;;;1.05;;
23617;SDS011;18207;32.078;34.818;2022-10-16T14:36:06;1.83;;;1.15;;
23617;SDS011;18207;32.078;34.818;2022-10-16T14:38:49;1.52;;;0.82;;
23617;SDS011;18207;32.078;34.818;2022-10-16T14:41:32;1.42;;;1.15;;
23617;SDS011;18207;32.078;34.818;2022-10-16T14:44:13;2.80;;;1.08;;
23617;SDS011;18207;32.078;34.818;2022-10-16T14:46:46;1.45;;;1.17;;
23617;SDS011;18207;32.078;34.818;2022-10-16T14:49:17;0.90;;;0.88;;
23617;SDS011;18207;32.078;34.818;2022-10-16T14:51:51;2.40;;;1.20;;
23617;SDS011;18207;32.078;34.818;2022-10-16T14:54:22;1.08;;;0.95;;
23617;SDS011;18207;32.078;34.818;2022-10-16T14:56:53;1.00;;;0.82;;
23617;SDS011;18207;32.078;34.818;2022-10-16T14:59:27;1.20;;;1.00;;
23617;SDS011;18207;32.078;34.818;2022-10-16T15:02:06;1.10;;;0.98;;
23617;SDS011;18207;32.078;34.818;2022-10-16T15:04:50;1.63;;;0.90;;
23617;SDS011;18207;32.078;34.818;2022-10-16T15:07:23;1.33;;;1.02;;
23617;SDS011;18207;32.078;34.818;2022-10-16T15:09:54;1.48;;;1.23;;
23617;SDS011;18207;32.078;34.818;2022-10-16T15:12:26;2.67;;;0.98;;
23617;SDS011;18207;32.078;34.818;2022-10-16T15:14:57;1.10;;;1.00;;
23617;SDS011;18207;32.078;34.818;2022-10-16T15:17:28;1.23;;;1.00;;
23617;SDS011;18207;32.078;34.818;2022-10-16T15:19:58;1.40;;;0.93;;
23617;SDS011;18207;32.078;34.818;2022-10-16T15:22:30;2.03;;;1.10;;
23617;SDS011;18207;32.078;34.818;2022-10-16T15:25:01;2.00;;;1.17;;
23617;SDS011;18207;32.078;34.818;2022-10-16T15:27:52;2.30;;;1.30;;
23617;SDS011;18207;32.078;34.818;2022-10-16T15:30:23;1.98;;;1.30;;
23617;SDS011;18207;32.078;34.818;2022-10-16T15:32:53;1.25;;;1.10;;
23617;SDS011;18207;32.078;34.818;2022-10-16T15:35:24;17.02;;;5.15;;
23617;SDS011;18207;32.078;34.818;2022-10-16T15:37:57;25.05;;;9.45;;
23617;SDS011;18207;32.078;34.818;2022-10-16T15:40:28;14.35;;;6.47;;
23617;SDS011;18207;32.078;34.818;2022-10-16T15:42:59;7.45;;;4.63;;
23617;SDS011;18207;32.078;34.818;2022-10-16T15:45:29;5.50;;;3.75;;
23617;SDS011;18207;32.078;34.818;2022-10-16T15:47:59;5.97;;;3.40;;
23617;SDS011;18207;32.078;34.818;2022-10-16T15:50:30;4.25;;;3.40;;